Time;durP1;ratioP1;P1;durP2;ratioP2;P2;SDS_P1;SDS_P2;PMS_P1;PMS_P2;Temp;Humidity;BMP_temperature;BMP_pressure;BME280_temperature;BME280_humidity;BME280_pressure;Samples;Min_cycle;Max_cycle;Signal;HPM_P1;HPM_P2
2023/07/03 00:00:12;;;;;;;1999.90;999.90;;;17.80;99.90;;;;;;5034394;28;20108;-71
2023/07/03 00:02:38;;;;;;;1999.90;999.90;;;17.90;99.90;;;;;;5032560;28;20044;-71
2023/07/03 00:05:06;;;;;;;1999.90;999.90;;;17.80;99.90;;;;;;5032853;28;20021;-71
2023/07/03 00:07:32;;;;;;;1999.90;999.90;;;17.80;99.90;;;;;;5034255;28;20100;-71
2023/07/03 00:09:58;;;;;;;1999.90;999.90;;;17.80;99.90;;;;;;5034443;28;20024;-71
2023/07/03 00:12:24;;;;;;;1999.90;999.90;;;17.80;99.90;;;;;;5034331;28;20396;-71
2023/07/03 00:14:49;;;;;;;1999.90;999.90;;;17.80;99.90;;;;;;5033937;28;20523;-71
2023/07/03 00:17:15;;;;;;;1999.90;999.90;;;17.80;99.90;;;;;;5033741;28;20033;-71
2023/07/03 00:19:41;;;;;;;1999.90;999.90;;;17.80;99.90;;;;;;5033844;28;20026;-71
2023/07/03 00:22:06;;;;;;;1999.90;999.90;;;17.80;99.90;;;;;;5033679;28;20033;-71
2023/07/03 00:24:33;;;;;;;1999.90;999.90;;;17.80;99.90;;;;;;5033960;28;20020;-71
2023/07/03 00:26:59;;;;;;;1999.90;999.90;;;17.80;99.90;;;;;;5033830;28;20025;-71
2023/07/03 00:29:28;;;;;;;1999.90;999.90;;;17.80;99.90;;;;;;5032316;28;20022;-71
2023/07/03 00:31:54;;;;;;;1999.90;999.90;;;17.80;99.90;;;;;;5034259;28;20025;-71
2023/07/03 00:34:20;;;;;;;1999.90;999.90;;;17.80;99.90;;;;;;5034014;28;20022;-71
2023/07/03 00:36:46;;;;;;;1999.90;999.90;;;17.80;99.90;;;;;;5033906;28;20480;-71
2023/07/03 00:39:11;;;;;;;1999.90;999.90;;;17.80;99.90;;;;;;5033809;28;20489;-71
2023/07/03 00:41:37;;;;;;;1999.90;999.90;;;17.80;99.90;;;;;;5033877;28;20033;-71
2023/07/03 00:44:03;;;;;;;1999.90;999.90;;;17.70;99.90;;;;;;5032362;28;20071;-71
2023/07/03 00:46:28;;;;;;;1999.90;999.90;;;17.80;99.90;;;;;;5033438;28;20030;-71
2023/07/03 00:48:54;;;;;;;1999.90;999.90;;;17.80;99.90;;;;;;5033688;28;20100;-71
2023/07/03 00:51:20;;;;;;;1999.90;999.90;;;17.80;99.90;;;;;;5033550;28;20036;-71
2023/07/03 00:53:45;;;;;;;1999.90;999.90;;;17.80;99.90;;;;;;5032838;28;20496;-71
2023/07/03 00:56:12;;;;;;;1999.90;999.90;;;17.80;99.90;;;;;;5033272;28;20416;-71
2023/07/03 00:58:38;;;;;;;1999.90;999.90;;;17.80;99.90;;;;;;5033488;28;20499;-71
2023/07/03 01:01:23;;;;;;;1999.90;999.90;;;17.80;99.90;;;;;;5033450;28;20029;-71
2023/07/03 01:04:08;;;;;;;1999.90;999.90;;;17.90;99.90;;;;;;5032655;28;20079;-71
2023/07/03 01:06:45;;;;;;;1999.90;999.90;;;17.90;99.90;;;;;;5033277;28;20053;-71
2023/07/03 01:09:14;;;;;;;1999.90;999.90;;;17.90;99.90;;;;;;5033206;28;20090;-71
2023/07/03 01:11:42;;;;;;;1999.90;999.90;;;17.90;99.90;;;;;;5031934;28;20026;-71
2023/07/03 01:14:09;;;;;;;1999.90;999.90;;;17.90;99.90;;;;;;5033008;28;20072;-71
2023/07/03 01:16:35;;;;;;;1999.90;999.90;;;18.00;99.90;;;;;;5032901;28;20025;-71
2023/07/03 01:19:02;;;;;;;1999.90;999.90;;;18.00;99.90;;;;;;5033313;28;20034;-71
2023/07/03 01:21:39;;;;;;;1999.90;999.90;;;18.00;99.90;;;;;;5032500;28;20030;-71
2023/07/03 01:24:12;;;;;;;1999.90;999.90;;;18.10;99.90;;;;;;5033498;28;20392;-71
2023/07/03 01:26:39;;;;;;;1999.90;999.90;;;18.00;99.90;;;;;;5032516;28;20060;-71
2023/07/03 01:29:06;;;;;;;1999.90;999.90;;;18.10;99.90;;;;;;5032325;28;20029;-71
2023/07/03 01:31:35;;;;;;;1999.90;999.90;;;18.10;99.90;;;;;;5033012;28;20151;-71
2023/07/03 01:34:02;;;;;;;1999.90;999.90;;;18.10;99.90;;;;;;5033331;28;20093;-71
2023/07/03 01:36:33;;;;;;;1999.90;999.90;;;18.10;99.90;;;;;;5033031;28;20044;-71
2023/07/03 01:39:02;;;;;;;1999.90;999.90;;;18.00;99.90;;;;;;5033086;28;20519;-71
2023/07/03 01:41:29;;;;;;;1999.90;999.90;;;18.10;99.90;;;;;;5032963;28;20396;-71
2023/07/03 01:43:55;;;;;;;1999.90;999.90;;;18.00;99.90;;;;;;5033035;28;20087;-71
2023/07/03 01:46:21;;;;;;;1999.90;999.90;;;18.00;99.90;;;;;;5032628;28;20492;-71
2023/07/03 01:48:47;;;;;;;1999.90;999.90;;;17.90;99.90;;;;;;5032889;28;20079;-71
2023/07/03 01:51:22;;;;;;;1999.90;999.90;;;17.90;99.90;;;;;;5033021;28;20029;-71
2023/07/03 01:53:55;;;;;;;1999.90;999.90;;;17.90;99.90;;;;;;5032871;28;20040;-71
2023/07/03 01:56:32;;;;;;;1999.90;999.90;;;17.90;99.90;;;;;;5032738;28;20033;-71
2023/07/03 01:59:08;;;;;;;1999.90;999.90;;;17.90;99.90;;;;;;5032710;28;20052;-71
2023/07/03 02:01:45;;;;;;;1999.90;999.90;;;17.90;99.90;;;;;;5032842;28;20400;-71
2023/07/03 02:04:23;;;;;;;1999.90;999.90;;;17.80;99.90;;;;;;5032505;28;20489;-71
2023/07/03 02:06:51;;;;;;;1999.90;999.90;;;17.90;99.90;;;;;;5032466;28;20496;-71
2023/07/03 02:09:18;;;;;;;1999.90;999.90;;;17.90;99.90;;;;;;5031520;28;20045;-71
2023/07/03 02:11:46;;;;;;;1999.90;999.90;;;18.00;99.90;;;;;;5032852;28;20036;-71
2023/07/03 02:14:12;;;;;;;1999.90;999.90;;;18.00;99.90;;;;;;5032199;28;20037;-71
2023/07/03 02:16:41;;;;;;;1999.90;999.90;;;18.10;99.90;;;;;;5034351;28;20026;-71
2023/07/03 02:19:08;;;;;;;1999.90;999.90;;;18.20;99.90;;;;;;5036352;28;20025;-71
2023/07/03 02:21:38;;;;;;;1999.90;999.90;;;18.20;99.90;;;;;;5035738;28;20411;-71
2023/07/03 02:24:04;;;;;;;1999.90;999.90;;;18.30;99.90;;;;;;5036781;28;20017;-71
2023/07/03 02:26:29;;;;;;;1999.90;999.90;;;18.30;99.90;;;;;;5034509;28;20033;-71
2023/07/03 02:28:55;;;;;;;1999.90;999.90;;;18.30;99.90;;;;;;5036478;28;20093;-71
2023/07/03 02:31:20;;;;;;;1999.90;999.90;;;18.40;99.90;;;;;;5036402;28;20410;-71
2023/07/03 02:33:46;;;;;;;1999.90;999.90;;;18.40;99.90;;;;;;5035942;28;20025;-71
2023/07/03 02:36:12;;;;;;;1999.90;999.90;;;18.50;99.90;;;;;;5036422;28;20036;-71
2023/07/03 02:38:38;;;;;;;1999.90;999.90;;;18.50;99.90;;;;;;5035892;28;20048;-71
2023/07/03 02:41:04;;;;;;;1999.90;999.90;;;18.60;99.90;;;;;;5036243;28;20029;-71
2023/07/03 02:43:30;;;;;;;1999.90;999.90;;;18.60;99.90;;;;;;5036277;28;20383;-71
2023/07/03 02:46:05;;;;;;;1999.90;999.90;;;18.60;99.90;;;;;;5035559;28;20480;-71
2023/07/03 02:48:31;;;;;;;1999.90;999.90;;;18.60;99.90;;;;;;5035933;28;20029;-71
2023/07/03 02:50:56;;;;;;;1999.90;999.90;;;18.60;99.90;;;;;;5035927;28;20400;-71
2023/07/03 02:53:22;;;;;;;1999.90;999.90;;;18.70;99.90;;;;;;5035746;28;20029;-71
2023/07/03 02:55:49;;;;;;;1999.90;999.90;;;18.70;99.90;;;;;;5034543;28;20100;-71
2023/07/03 02:58:14;;;;;;;1999.90;999.90;;;18.70;99.90;;;;;;5035541;28;20018;-71
2023/07/03 03:00:41;;;;;;;1999.90;999.90;;;18.70;99.90;;;;;;5035300;28;20034;-71
2023/07/03 03:03:06;;;;;;;1999.90;999.90;;;18.70;99.90;;;;;;5035323;28;20061;-71
2023/07/03 03:05:32;;;;;;;1999.90;999.90;;;18.60;99.90;;;;;;5035194;28;20064;-71
2023/07/03 03:07:58;;;;;;;1999.90;999.90;;;18.60;99.90;;;;;;5035622;28;20101;-71
2023/07/03 03:10:24;;;;;;;1999.90;999.90;;;18.50;99.90;;;;;;5035323;28;20452;-71
2023/07/03 03:12:50;;;;;;;1999.90;999.90;;;18.50;99.90;;;;;;5035263;28;20030;-71
2023/07/03 03:15:17;;;;;;;1999.90;999.90;;;18.50;99.90;;;;;;5035050;28;20096;-71
2023/07/03 03:17:44;;;;;;;1999.90;999.90;;;18.50;99.90;;;;;;5035342;28;20049;-71
2023/07/03 03:20:13;;;;;;;1999.90;999.90;;;18.50;99.90;;;;;;5035673;28;20034;-71
2023/07/03 03:22:39;;;;;;;1999.90;999.90;;;18.60;99.90;;;;;;5034541;28;20025;-71
2023/07/03 03:25:06;;;;;;;1999.90;999.90;;;18.60;99.90;;;;;;5035262;28;20111;-71
2023/07/03 03:27:31;;;;;;;1999.90;999.90;;;18.60;99.90;;;;;;5034470;28;20018;-72
2023/07/03 03:29:57;;;;;;;1999.90;999.90;;;18.70;99.90;;;;;;5035151;28;20071;-71
2023/07/03 03:32:23;;;;;;;1999.90;999.90;;;18.70;99.90;;;;;;5033660;28;20476;-71
2023/07/03 03:34:50;;;;;;;1999.90;999.90;;;18.70;99.90;;;;;;5034790;28;20033;-72
2023/07/03 03:37:16;;;;;;;1999.90;999.90;;;18.80;99.90;;;;;;5034615;28;20030;-71
2023/07/03 03:39:41;;;;;;;1999.90;999.90;;;18.70;99.90;;;;;;5034829;28;20021;-71
2023/07/03 03:42:09;;;;;;;1999.90;999.90;;;18.80;99.90;;;;;;5035067;28;20034;-71
2023/07/03 03:44:35;;;;;;;1999.90;999.90;;;18.80;99.90;;;;;;5034939;28;20022;-71
2023/07/03 03:47:01;;;;;;;1999.90;999.90;;;18.80;99.90;;;;;;5035288;28;20380;-71
2023/07/03 03:49:26;;;;;;;1999.90;999.90;;;18.80;99.90;;;;;;5034505;28;20034;-71
2023/07/03 03:51:52;;;;;;;1999.90;999.90;;;18.80;99.90;;;;;;5034838;28;20100;-71
2023/07/03 03:54:19;;;;;;;1999.90;999.90;;;18.80;99.90;;;;;;5034959;28;20036;-71
2023/07/03 03:56:44;;;;;;;1999.90;999.90;;;18.80;99.90;;;;;;5034945;28;20388;-72
2023/07/03 03:59:10;;;;;;;1999.90;999.90;;;18.80;99.90;;;;;;5034710;28;20037;-71
2023/07/03 04:01:36;;;;;;;1999.90;999.90;;;18.80;99.90;;;;;;5034248;28;20088;-71
2023/07/03 04:04:01;;;;;;;1999.90;999.90;;;18.80;99.90;;;;;;5034186;28;20109;-71
2023/07/03 04:06:28;;;;;;;1999.90;999.90;;;18.80;99.90;;;;;;5034501;28;20032;-71
2023/07/03 04:08:54;;;;;;;1999.90;999.90;;;18.90;99.90;;;;;;5034094;28;20100;-72
2023/07/03 04:11:20;;;;;;;1999.90;999.90;;;18.90;99.90;;;;;;5034763;28;20101;-71
2023/07/03 04:13:46;;;;;;;1999.90;999.90;;;19.00;99.90;;;;;;5034150;28;20077;-71
2023/07/03 04:16:12;;;;;;;1999.90;999.90;;;19.00;99.90;;;;;;5033794;28;20037;-72
2023/07/03 04:18:40;;;;;;;1999.90;999.90;;;19.00;99.90;;;;;;5033970;28;20099;-71
2023/07/03 04:21:06;;;;;;;1999.90;999.90;;;19.00;99.90;;;;;;5034509;28;20029;-71
2023/07/03 04:23:32;;;;;;;1999.90;999.90;;;19.10;99.90;;;;;;5033295;28;20022;-71
2023/07/03 04:25:58;;;;;;;1999.90;999.90;;;19.10;99.90;;;;;;5033925;28;20036;-72
2023/07/03 04:28:24;;;;;;;1999.90;999.90;;;19.10;99.90;;;;;;5033924;28;20055;-71
2023/07/03 04:30:49;;;;;;;1999.90;999.90;;;19.10;99.90;;;;;;5034012;28;20503;-71
2023/07/03 04:33:15;;;;;;;1999.90;999.90;;;19.10;99.90;;;;;;5034133;28;20021;-71
2023/07/03 04:35:42;;;;;;;1999.90;999.90;;;19.10;99.90;;;;;;5049343;28;20171;-71
2023/07/03 04:38:08;;;;;;;1999.90;999.90;;;19.20;99.90;;;;;;5033144;28;20041;-71
2023/07/03 04:40:34;;;;;;;1999.90;999.90;;;19.20;99.90;;;;;;5030923;28;20033;-71
2023/07/03 04:43:00;;;;;;;1999.90;999.90;;;19.20;99.90;;;;;;5033587;28;20022;-71
2023/07/03 04:45:27;;;;;;;1999.90;999.90;;;19.20;99.90;;;;;;5033912;28;20021;-71
2023/07/03 04:47:53;;;;;;;1999.90;999.90;;;19.30;99.90;;;;;;5032980;28;20025;-71
2023/07/03 04:50:24;;;;;;;1999.90;999.90;;;19.20;99.90;;;;;;5041728;28;20036;-71
2023/07/03 04:52:51;;;;;;;1999.90;999.90;;;19.20;99.90;;;;;;5053502;28;20415;-71
2023/07/03 04:55:17;;;;;;;1999.90;999.90;;;19.20;99.90;;;;;;5045185;28;20041;-71
2023/07/03 04:57:43;;;;;;;1999.90;999.90;;;19.10;99.90;;;;;;5032425;28;20026;-71
2023/07/03 05:00:14;;;;;;;1999.90;999.90;;;19.10;99.90;;;;;;5033443;28;20034;-71
2023/07/03 05:02:48;;;;;;;1999.90;999.90;;;19.20;99.90;;;;;;5032911;28;20082;-71
2023/07/03 05:05:16;;;;;;;1999.90;999.90;;;19.20;99.90;;;;;;5033144;28;20391;-71
2023/07/03 05:07:43;;;;;;;1999.90;999.90;;;19.10;99.90;;;;;;5033269;28;20036;-71
2023/07/03 05:10:10;;;;;;;1999.90;999.90;;;19.10;99.90;;;;;;5031921;28;20029;-73
2023/07/03 05:12:36;;;;;;;1999.90;999.90;;;19.10;99.90;;;;;;5033245;28;20033;-71
2023/07/03 05:15:03;;;;;;;1999.90;999.90;;;19.10;99.90;;;;;;5032981;28;20564;-71
2023/07/03 05:17:29;;;;;;;1999.90;999.90;;;19.10;99.90;;;;;;5029137;28;20049;-70
2023/07/03 05:19:55;;;;;;;1999.90;999.90;;;19.20;99.90;;;;;;5032942;28;20068;-71
2023/07/03 05:22:21;;;;;;;1999.90;999.90;;;19.20;99.90;;;;;;5033167;28;20060;-72
2023/07/03 05:24:47;;;;;;;1999.90;999.90;;;19.20;99.90;;;;;;5031946;28;20057;-72
2023/07/03 05:27:13;;;;;;;1999.90;999.90;;;19.20;99.90;;;;;;5032633;28;20056;-70
2023/07/03 05:29:39;;;;;;;1999.90;999.90;;;19.20;99.90;;;;;;5032831;28;20068;-71
2023/07/03 05:32:05;;;;;;;1999.90;999.90;;;19.20;99.90;;;;;;5031384;28;20120;-71
2023/07/03 05:34:32;;;;;;;1999.90;999.90;;;19.30;99.90;;;;;;5032585;28;20087;-70
2023/07/03 05:36:58;;;;;;;1999.90;999.90;;;19.20;99.90;;;;;;5032292;28;20600;-71
2023/07/03 05:39:24;;;;;;;1999.90;999.90;;;19.20;99.90;;;;;;5032202;28;20101;-71
2023/07/03 05:41:50;;;;;;;1999.90;999.90;;;19.20;99.90;;;;;;5032149;28;20025;-70
2023/07/03 05:44:16;;;;;;;1999.90;999.90;;;19.10;99.90;;;;;;5031325;28;20025;-71
2023/07/03 05:46:41;;;;;;;1999.90;999.90;;;19.10;99.90;;;;;;5032583;28;20025;-71
2023/07/03 05:49:07;;;;;;;1999.90;999.90;;;18.90;99.90;;;;;;5037449;28;20044;-71
2023/07/03 05:51:33;;;;;;;1999.90;999.90;;;18.90;99.90;;;;;;5056008;28;20063;-73
2023/07/03 05:53:58;;;;;;;1999.90;999.90;;;18.90;99.90;;;;;;5053047;28;20032;-72
2023/07/03 05:56:26;;;;;;;1999.90;999.90;;;18.90;99.90;;;;;;5035047;28;20030;-71
2023/07/03 05:58:52;;;;;;;1999.90;999.90;;;19.00;99.90;;;;;;5036647;28;20030;-71
2023/07/03 06:01:17;;;;;;;1999.90;999.90;;;19.00;99.90;;;;;;5036440;28;20495;-71
2023/07/03 06:03:44;;;;;;;1999.90;999.90;;;19.00;99.90;;;;;;5036045;28;20028;-73
2023/07/03 06:06:10;;;;;;;1999.90;999.90;;;19.10;99.90;;;;;;5036094;28;20412;-70
2023/07/03 06:08:35;;;;;;;1999.90;999.90;;;19.20;99.90;;;;;;5034668;28;20025;-70
2023/07/03 06:11:01;;;;;;;1999.90;999.90;;;19.40;99.90;;;;;;5021128;28;20029;-70
2023/07/03 06:13:26;;;;;;;1999.90;999.90;;;19.50;99.90;;;;;;5008592;28;20049;-73
2023/07/03 06:15:52;;;;;;;1999.90;999.90;;;19.60;99.90;;;;;;5010599;28;20072;-70
2023/07/03 06:18:18;;;;;;;1999.90;999.90;;;19.70;99.90;;;;;;5008342;28;20052;-71
2023/07/03 06:20:43;;;;;;;1999.90;999.90;;;19.70;99.90;;;;;;5011948;28;20067;-70
2023/07/03 06:23:09;;;;;;;1999.90;999.90;;;20.00;99.90;;;;;;5029394;28;20079;-70
2023/07/03 06:25:35;;;;;;;1999.90;999.90;;;20.10;99.90;;;;;;5012890;28;20061;-70
2023/07/03 06:28:01;;;;;;;1999.90;999.90;;;20.10;99.90;;;;;;5019772;28;20032;-72
2023/07/03 06:30:26;;;;;;;1999.90;999.90;;;20.00;99.90;;;;;;5010019;28;20864;-70
2023/07/03 06:32:52;;;;;;;1999.90;999.90;;;19.90;99.90;;;;;;5009798;28;20745;-70
2023/07/03 06:35:19;;;;;;;1999.90;999.90;;;19.90;99.90;;;;;;5009310;28;20048;-70
2023/07/03 06:37:45;;;;;;;1999.90;999.90;;;19.80;99.90;;;;;;5008857;28;20069;-70
2023/07/03 06:40:11;;;;;;;1999.90;999.90;;;19.70;99.90;;;;;;5008781;28;20021;-70
2023/07/03 06:42:37;;;;;;;1999.90;999.90;;;19.50;99.90;;;;;;5008925;28;20045;-72
2023/07/03 06:45:04;;;;;;;1999.90;999.90;;;19.40;99.90;;;;;;5009522;28;20030;-70
2023/07/03 06:47:29;;;;;;;1999.90;999.90;;;19.40;99.90;;;;;;5008542;28;20103;-70
2023/07/03 06:49:55;;;;;;;1999.90;999.90;;;19.50;99.90;;;;;;5008530;28;20131;-70
2023/07/03 06:52:20;;;;;;;1999.90;999.90;;;19.40;99.90;;;;;;5009848;28;20768;-70
2023/07/03 06:54:47;;;;;;;1999.90;999.90;;;19.40;99.90;;;;;;5007235;28;20684;-72
2023/07/03 06:57:13;;;;;;;1999.90;999.90;;;19.40;99.90;;;;;;5008761;28;20631;-70
2023/07/03 06:59:38;;;;;;;1999.90;999.90;;;19.40;99.90;;;;;;5008203;28;20018;-70
2023/07/03 07:02:06;;;;;;;1999.90;999.90;;;19.30;99.90;;;;;;5004247;28;20130;-70
2023/07/03 07:04:32;;;;;;;1999.90;999.90;;;19.20;99.90;;;;;;5008169;28;20033;-71
2023/07/03 07:06:57;;;;;;;1999.90;999.90;;;19.10;99.90;;;;;;5008165;28;20034;-72
2023/07/03 07:09:23;;;;;;;1999.90;999.90;;;19.10;99.90;;;;;;5012149;28;20106;-71
2023/07/03 07:11:49;;;;;;;1999.90;999.90;;;19.10;99.90;;;;;;5007146;28;20064;-71
2023/07/03 07:14:14;;;;;;;1999.90;999.90;;;19.10;99.90;;;;;;5007946;28;20057;-71
2023/07/03 07:16:42;;;;;;;1999.90;999.90;;;19.10;99.90;;;;;;5016766;28;20588;-71
2023/07/03 07:19:09;;;;;;;1999.90;999.90;;;19.20;99.90;;;;;;5004718;28;20260;-71
2023/07/03 07:21:43;;;;;;;1999.90;999.90;;;19.20;99.90;;;;;;5003960;28;20484;-72
2023/07/03 07:24:20;;;;;;;1999.90;999.90;;;19.20;99.90;;;;;;5007490;28;20111;-71
2023/07/03 07:26:47;;;;;;;1999.90;999.90;;;19.20;99.90;;;;;;5005501;28;20037;-71
2023/07/03 07:29:13;;;;;;;1999.90;999.90;;;19.20;99.90;;;;;;4999907;28;20025;-72
2023/07/03 07:31:39;;;;;;;1999.90;999.90;;;19.30;99.90;;;;;;5006315;28;20492;-72
2023/07/03 07:34:06;;;;;;;1999.90;999.90;;;19.30;99.90;;;;;;5004753;28;20036;-72
2023/07/03 07:36:32;;;;;;;1999.90;999.90;;;19.30;99.90;;;;;;5005772;28;20382;-71
2023/07/03 07:39:00;;;;;;;1999.90;999.90;;;19.50;99.90;;;;;;5006313;28;20145;-71
2023/07/03 07:41:27;;;;;;;1999.90;999.90;;;19.50;99.90;;;;;;5005543;28;20033;-71
2023/07/03 07:43:54;;;;;;;1999.90;999.90;;;19.40;99.90;;;;;;5015263;28;20048;-72
2023/07/03 07:46:20;;;;;;;1999.90;999.90;;;19.40;99.90;;;;;;5013818;28;20029;-71
2023/07/03 07:48:47;;;;;;;1999.90;999.90;;;19.50;99.90;;;;;;5021138;28;20025;-71
2023/07/03 07:51:13;;;;;;;1999.90;999.90;;;19.50;99.90;;;;;;5011458;28;20032;-71
2023/07/03 07:53:39;;;;;;;1999.90;999.90;;;19.60;99.90;;;;;;5006276;28;20017;-71
2023/07/03 07:56:08;;;;;;;1999.90;999.90;;;19.60;99.90;;;;;;5005608;28;20036;-71
2023/07/03 07:58:34;;;;;;;1999.90;999.90;;;19.80;99.90;;;;;;5005735;28;20083;-71
2023/07/03 08:01:00;;;;;;;1999.90;999.90;;;19.90;99.90;;;;;;5003729;28;20029;-71
2023/07/03 08:03:27;;;;;;;1999.90;999.90;;;20.00;99.90;;;;;;5005701;28;20128;-71
2023/07/03 08:06:00;;;;;;;1999.90;999.90;;;20.00;99.90;;;;;;5005636;28;20040;-70
2023/07/03 08:08:27;;;;;;;1999.90;999.90;;;19.90;99.90;;;;;;5005218;28;20021;-68
2023/07/03 08:10:54;;;;;;;1999.90;999.90;;;20.10;99.90;;;;;;5005208;28;20029;-70
2023/07/03 08:13:20;;;;;;;1999.90;999.90;;;20.00;99.90;;;;;;5005448;28;20033;-69
2023/07/03 08:15:45;;;;;;;1999.90;999.90;;;20.00;99.90;;;;;;5005598;28;20036;-69
2023/07/03 08:18:12;;;;;;;1999.90;999.90;;;20.20;99.90;;;;;;5004863;28;20732;-68
2023/07/03 08:20:38;;;;;;;1999.90;999.90;;;20.70;99.90;;;;;;5005416;28;20029;-69
2023/07/03 08:23:03;;;;;;;1999.90;999.90;;;21.40;99.90;;;;;;5005732;28;20048;-69
2023/07/03 08:25:29;;;;;;;1999.90;999.90;;;21.50;99.90;;;;;;5005718;28;20038;-69
2023/07/03 08:27:55;;;;;;;1999.90;999.90;;;21.40;99.90;;;;;;5004610;28;20099;-68
2023/07/03 08:30:22;;;;;;;1999.90;999.90;;;21.40;99.90;;;;;;5022553;28;20467;-69
2023/07/03 08:32:48;;;;;;;1999.90;999.90;;;21.20;99.90;;;;;;5025195;28;20025;-68
2023/07/03 08:35:13;;;;;;;1999.90;999.90;;;21.50;99.90;;;;;;5024600;28;20040;-69
2023/07/03 08:37:39;;;;;;;1999.90;999.90;;;21.80;99.90;;;;;;5011220;28;20144;-70
2023/07/03 08:40:07;;;;;;;1999.90;999.90;;;22.20;99.90;;;;;;5004842;28;20567;-69
2023/07/03 08:42:37;;;;;;;1999.90;999.90;;;22.40;99.90;;;;;;5004793;28;20589;-69
2023/07/03 08:45:06;;;;;;;1999.90;999.90;;;22.30;99.90;;;;;;5005129;28;20092;-69
2023/07/03 08:47:33;;;;;;;1999.90;999.90;;;22.40;99.90;;;;;;5004789;28;20495;-69
2023/07/03 08:50:02;;;;;;;1999.90;999.90;;;22.70;99.90;;;;;;5004855;28;20480;-70
2023/07/03 08:52:37;;;;;;;1999.90;999.90;;;22.70;99.90;;;;;;5005225;28;20574;-69
2023/07/03 08:55:06;;;;;;;1999.90;999.90;;;23.20;99.90;;;;;;5004882;28;20036;-69
2023/07/03 08:57:32;;;;;;;1999.90;999.90;;;23.40;99.90;;;;;;5005136;28;20551;-69
2023/07/03 08:59:58;;;;;;;1999.90;999.90;;;24.20;99.90;;;;;;5018383;28;20067;-70
2023/07/03 09:02:38;;;;;;;1999.90;999.90;;;24.30;99.90;;;;;;5004934;28;20037;-71
2023/07/03 09:05:14;;;;;;;1999.90;999.90;;;24.70;99.90;;;;;;5001238;28;20709;-70
2023/07/03 09:07:49;;;;;;;1999.90;999.90;;;25.00;99.90;;;;;;5025820;28;20033;-70
2023/07/03 09:10:29;;;;;;;1999.90;999.90;;;24.90;99.90;;;;;;5012493;28;20032;-69
2023/07/03 09:13:01;;;;;;;1999.90;999.90;;;24.60;99.90;;;;;;5006638;28;20025;-70
2023/07/03 09:15:31;;;;;;;1999.90;999.90;;;26.10;99.90;;;;;;5006675;28;20136;-70
2023/07/03 09:17:59;;;;;;;1999.90;999.90;;;26.90;99.90;;;;;;5007283;28;20556;-69
2023/07/03 09:20:27;;;;;;;1999.90;999.90;;;27.10;99.90;;;;;;5006236;28;20037;-70
2023/07/03 09:23:07;;;;;;;1999.90;999.90;;;27.10;99.90;;;;;;5006267;28;20021;-70
2023/07/03 09:25:46;;;;;;;1999.90;999.90;;;27.20;99.90;;;;;;5023784;28;20876;-69
2023/07/03 09:28:12;;;;;;;1999.90;999.90;;;26.30;99.90;;;;;;5026564;28;20095;-70
2023/07/03 09:30:38;;;;;;;1999.90;999.90;;;26.30;99.90;;;;;;5007385;28;20138;-71
2023/07/03 09:33:06;;;;;;;1999.90;999.90;;;26.60;99.90;;;;;;5006069;28;20014;-70
2023/07/03 09:35:42;;;;;;;1999.90;999.90;;;27.80;99.90;;;;;;5003007;28;20463;-70
2023/07/03 09:38:15;;;;;;;1999.90;999.90;;;29.10;99.90;;;;;;5005837;28;20034;-70
2023/07/03 09:40:44;;;;;;;1999.90;999.90;;;30.30;99.90;;;;;;5015237;28;20037;-70
2023/07/03 09:43:17;;;;;;;1999.90;999.90;;;31.10;99.90;;;;;;5005616;28;20064;-71
2023/07/03 09:45:43;;;;;;;1999.90;999.90;;;31.30;99.90;;;;;;5006573;28;20042;-71
2023/07/03 09:48:30;;;;;;;1999.90;999.90;;;31.00;99.90;;;;;;5006648;28;20806;-71
2023/07/03 09:50:56;;;;;;;1999.90;999.90;;;32.00;99.90;;;;;;5025490;28;20025;-70
2023/07/03 09:53:26;;;;;;;1999.90;999.90;;;31.70;99.90;;;;;;5024976;28;20444;-70
2023/07/03 09:55:54;;;;;;;1999.90;999.90;;;31.90;99.90;;;;;;5024268;28;20051;-72
2023/07/03 09:58:22;;;;;;;1999.90;999.90;;;32.30;99.90;;;;;;5024213;28;20543;-70
2023/07/03 10:00:51;;;;;;;1999.90;999.90;;;31.90;99.90;;;;;;5017267;28;20044;-70
2023/07/03 10:03:29;;;;;;;1999.90;999.90;;;31.10;99.90;;;;;;5004345;28;20044;-70
2023/07/03 10:05:56;;;;;;;1999.90;999.90;;;30.60;99.90;;;;;;5004389;28;20810;-70
2023/07/03 10:08:26;;;;;;;1999.90;999.90;;;29.10;99.90;;;;;;5004709;28;20026;-72
2023/07/03 10:10:55;;;;;;;1999.90;999.90;;;29.50;99.90;;;;;;5012295;28;20028;-70
2023/07/03 10:13:30;;;;;;;1999.90;999.90;;;29.10;99.90;;;;;;5004468;28;20582;-70
2023/07/03 10:15:58;;;;;;;1999.90;999.90;;;28.40;99.90;;;;;;5004144;28;20579;-70
2023/07/03 10:18:35;;;;;;;1999.90;999.90;;;27.60;99.90;;;;;;5004178;28;20547;-70
2023/07/03 10:21:03;;;;;;;1999.90;999.90;;;27.00;99.90;;;;;;5003564;28;20128;-71
2023/07/03 10:23:35;;;;;;;1999.90;999.90;;;25.50;99.90;;;;;;5003811;28;20022;-70
2023/07/03 10:26:04;;;;;;;1999.90;999.90;;;25.20;99.90;;;;;;5017959;28;20038;-70
2023/07/03 10:28:39;;;;;;;1999.90;999.90;;;25.10;99.90;;;;;;5003912;28;20536;-69
2023/07/03 10:31:11;;;;;;;1999.90;999.90;;;25.40;99.90;;;;;;5004373;28;20554;-70
2023/07/03 10:33:44;;;;;;;1999.90;999.90;;;26.00;99.90;;;;;;5004137;28;20328;-70
2023/07/03 10:36:20;;;;;;;1999.90;999.90;;;25.60;99.90;;;;;;5003711;28;20068;-70
2023/07/03 10:39:11;;;;;;;1999.90;999.90;;;25.30;99.90;;;;;;4988065;28;20583;-70
2023/07/03 10:41:50;;;;;;;1999.90;999.90;;;25.50;99.90;;;;;;4999595;28;20830;-70
2023/07/03 10:44:23;;;;;;;1999.90;999.90;;;25.20;99.90;;;;;;5009093;28;21387;-69
2023/07/03 10:47:47;;;;;;;1999.90;999.90;;;24.60;99.90;;;;;;5026874;28;20040;-71
2023/07/03 10:50:14;;;;;;;1999.90;999.90;;;24.50;99.90;;;;;;4985191;28;20038;-70
2023/07/03 10:52:45;;;;;;;1999.90;999.90;;;24.40;99.90;;;;;;4999506;28;20444;-70
2023/07/03 10:55:31;;;;;;;1999.90;999.90;;;24.80;99.90;;;;;;5000625;28;20561;-69
2023/07/03 10:58:02;;;;;;;1999.90;999.90;;;24.80;99.90;;;;;;5006172;28;20463;-69
2023/07/03 11:01:11;;;;;;;1999.90;999.90;;;24.10;99.90;;;;;;5006327;28;20025;-71
2023/07/03 11:03:42;;;;;;;1999.90;999.90;;;23.60;99.90;;;;;;4980823;28;20552;-69
2023/07/03 11:06:31;;;;;;;1999.90;999.90;;;23.60;99.90;;;;;;4983588;28;20753;-69
2023/07/03 11:09:25;;;;;;;1999.90;999.90;;;23.60;99.90;;;;;;4983165;28;20437;-69
2023/07/03 11:12:09;;;;;;;1999.90;999.90;;;23.40;99.90;;;;;;4982235;28;20511;-69
2023/07/03 11:14:44;;;;;;;1999.90;999.90;;;23.10;99.90;;;;;;5003738;28;20053;-71
2023/07/03 11:17:17;;;;;;;1999.90;999.90;;;22.70;99.90;;;;;;4990446;28;20041;-70
2023/07/03 11:19:57;;;;;;;1999.90;999.90;;;22.60;99.90;;;;;;4985384;28;20170;-69
2023/07/03 11:22:30;;;;;;;1999.90;999.90;;;22.50;99.90;;;;;;4968782;28;20034;-69
2023/07/03 11:25:07;;;;;;;1999.90;999.90;;;21.90;99.90;;;;;;4989417;28;20065;-69
2023/07/03 11:27:38;;;;;;;1999.90;999.90;;;22.10;99.90;;;;;;4987643;28;20034;-70
2023/07/03 11:30:06;;;;;;;1999.90;999.90;;;23.60;99.90;;;;;;5004116;28;20029;-70
2023/07/03 11:32:33;;;;;;;1999.90;999.90;;;25.00;99.90;;;;;;5004986;28;20853;-71
2023/07/03 11:35:00;;;;;;;1999.90;999.90;;;25.70;99.90;;;;;;5003995;28;20076;-71
2023/07/03 11:37:35;;;;;;;1999.90;999.90;;;25.70;99.90;;;;;;5006877;28;20532;-70
2023/07/03 11:40:20;;;;;;;1999.90;999.90;;;26.20;99.90;;;;;;5014538;28;20730;-71
2023/07/03 11:42:45;;;;;;;1999.90;999.90;;;26.20;99.90;;;;;;5001644;28;20047;-71
2023/07/03 11:45:26;;;;;;;1999.90;999.90;;;26.30;99.90;;;;;;5008035;28;20033;-70
2023/07/03 11:47:52;;;;;;;1999.90;999.90;;;26.60;99.90;;;;;;5007577;28;20094;-69
2023/07/03 11:50:29;;;;;;;1999.90;999.90;;;26.80;99.90;;;;;;5007943;28;20072;-70
2023/07/03 11:52:55;;;;;;;1999.90;999.90;;;27.20;99.90;;;;;;5005018;28;20121;-71
2023/07/03 11:55:37;;;;;;;1999.90;999.90;;;27.30;99.90;;;;;;5006109;28;20043;-70
2023/07/03 11:58:03;;;;;;;1999.90;999.90;;;27.60;99.90;;;;;;5005444;28;20039;-69
2023/07/03 12:00:31;;;;;;;1999.90;999.90;;;27.50;99.90;;;;;;5006191;28;20037;-70
2023/07/03 12:03:06;;;;;;;1999.90;999.90;;;27.00;99.90;;;;;;5006535;28;20643;-70
2023/07/03 12:05:58;;;;;;;1999.90;999.90;;;27.50;99.90;;;;;;5000569;28;20042;-71